Latest Weather Observations for Orange Airport

IDN60801

Issued at 6:02 pm EDT Thursday 23 February 2017 (issued every 30 minutes, with the page automatically refreshed every 10 minutes)

About weather observations | Map of weather stations | Latest weather observations for NSW | Other Formats
Station Details ID: 063303 Name: ORANGE AIRPORT AWS Lat: -33.38 Lon: 149.13 Height: 944.65 m
Data from the previous 72 hours. | See also: Recent months at Orange Airport
Date/Time
EDT
Temp
°C
App
Temp
°C
Dew
Point
°C
Rel
Hum
%
Delta-T
°C
Wind Press
QNH
hPa
Press
MSL
hPa
Rain since
9am
mm
Dir  Spd
km/h
Gust
km/h
Spd
kts
Gust
kts
23/05:30pm 28.5 26.8 9.7 31 10.9 SW 9 19 5 10 1021.3 1016.7 0.0
23/05:00pm 30.0 27.1 9.5 28 12.0 WNW 15 19 8 10 1021.2 1016.6 0.0
23/04:30pm 30.5 27.3 8.3 25 12.8 NW 15 24 8 13 1021.3 1016.7 0.0
23/04:00pm 31.5 29.4 6.5 21 14.0 WNW 7 15 4 8 1021.6 1016.9 0.0
23/03:30pm 30.9 28.4 6.7 22 13.6 SW 9 20 5 11 1021.8 1017.1 0.0
23/03:00pm 30.3 26.5 7.5 24 12.9 WNW 17 30 9 16 1022.0 1017.4 0.0
23/02:30pm 28.5 25.2 8.2 28 11.5 W 15 26 8 14 1022.3 1017.7 0.0
23/02:00pm 30.8 27.9 9.6 27 12.4 NW 15 28 8 15 1022.4 1017.8 0.0
23/01:30pm 29.1 26.2 9.8 30 11.3 NW 15 30 8 16 1022.9 1018.2 0.0
23/01:00pm 29.2 25.7 10.3 31 11.1 NNW 19 28 10 15 1023.1 1018.5 0.0
23/12:30pm 28.3 24.9 11.4 35 10.1 NNW 20 32 11 17 1023.3 1018.7 0.0
23/12:00pm 27.4 23.4 11.8 38 9.3 NW 24 32 13 17 1023.6 1019.0 0.0
23/11:30am 27.3 23.5 12.5 40 9.0 NNW 24 35 13 19 1023.6 1019.0 0.0
23/11:00am 25.9 22.3 12.0 42 8.3 NNW 22 33 12 18 1023.8 1019.1 0.0
23/10:30am 25.5 21.8 12.7 45 7.7 NNW 24 35 13 19 1023.6 1019.0 0.0
23/10:00am 24.1 19.9 12.4 48 7.0 NNW 26 35 14 19 1023.6 1019.0 0.0
23/09:30am 23.3 18.7 12.3 50 6.5 NNW 28 35 15 19 1023.5 1018.9 0.0
23/09:00am 22.7 19.0 12.6 53 6.0 N 24 33 13 18 1023.3 1018.7 0.0
23/08:30am 21.6 20.3 13.8 61 4.7 N 13 17 7 9 1023.1 1018.5 0.0
23/08:00am 18.1 18.1 13.6 75 2.7 NNW 6 7 3 4 1022.8 1018.1 0.0
23/07:30am 15.0 15.8 12.7 86 1.3 CALM 0 0 0 0 1022.3 1017.7 0.0
23/07:00am 12.6 12.7 10.0 84 1.4 CALM 0 0 0 0 1022.0 1017.4 0.0
23/06:30am 12.7 12.7 9.9 83 1.5 CALM 0 0 0 0 1021.8 1017.1 0.0
23/06:00am 13.5 13.7 10.5 82 1.6 CALM 0 0 0 0 1021.3 1016.7 0.0
23/05:30am 13.0 12.9 9.3 78 2.0 CALM 0 0 0 0 1021.2 1016.6 0.0
23/05:00am 12.7 12.4 8.8 77 2.1 CALM 0 0 0 0 1021.4 1016.8 0.0
23/04:30am 13.5 13.2 8.8 73 2.5 CALM 0 0 0 0 1021.3 1016.7 0.0
23/04:00am 13.7 13.5 9.2 74 2.4 CALM 0 0 0 0 1021.3 1016.7 0.0
23/03:30am 13.8 13.5 8.8 72 2.7 CALM 0 0 0 0 1021.7 1017.0 0.0
23/03:00am 13.5 13.1 8.1 70 2.8 CALM 0 0 0 0 1021.8 1017.1 0.0
23/02:30am 13.9 13.5 8.1 68 3.0 CALM 0 0 0 0 1021.9 1017.2 0.0
23/02:00am 14.0 13.5 7.8 66 3.2 CALM 0 0 0 0 1022.1 1017.5 0.0
23/01:30am 14.5 13.5 7.5 63 3.6 SSW 2 7 1 4 1022.0 1017.4 0.0
23/01:00am 14.8 14.2 7.4 61 3.8 CALM 0 0 0 0 1022.1 1017.5 0.0
23/12:30am 15.4 13.8 8.2 62 3.8 NE 6 9 3 5 1022.1 1017.5 0.0
23/12:00am 14.5 12.8 7.5 63 3.6 ENE 6 9 3 5 1022.1 1017.5 0.0
 
Date/Time
EDT
Temp
°C
App
Temp
°C
Dew
Point
°C
Rel
Hum
%
Delta-T
°C
Wind Press
QNH
hPa
Press
MSL
hPa
Rain since
9am
mm
Dir  Spd
km/h
Gust
km/h
Spd
kts
Gust
kts
22/11:30pm 15.7 15.3 8.2 61 4.0 CALM 0 0 0 0 1021.8 1017.1 0.0
22/11:00pm 16.2 15.2 7.4 56 4.6 WNW 2 6 1 3 1021.6 1016.9 0.0
22/10:30pm 17.5 15.7 7.3 51 5.4 WNW 6 6 3 3 1021.4 1016.8 0.0
22/10:00pm 17.8 15.8 7.2 50 5.6 NW 7 9 4 5 1021.3 1016.7 0.0
22/09:30pm 18.7 18.2 7.8 49 5.8 CALM 0 0 0 0 1021.2 1016.6 0.0
22/09:00pm 19.7 19.0 6.8 43 6.8 CALM 0 0 0 0 1020.9 1016.2 0.0
22/08:30pm 20.9 19.5 5.7 37 7.9 NNW 2 7 1 4 1020.6 1015.9 0.0
22/08:00pm 23.1 20.8 5.5 32 9.3 NW 7 9 4 5 1020.4 1015.7 0.0
22/07:30pm 25.5 22.8 5.7 28 10.6 NW 9 11 5 6 1020.1 1015.5 0.0
22/07:00pm 26.9 23.7 5.2 25 11.6 NW 11 17 6 9 1019.9 1015.2 0.0
22/06:30pm 27.4 23.7 4.5 23 12.2 NNW 13 20 7 11 1019.9 1015.2 0.0
22/06:00pm 28.0 24.4 5.0 23 12.3 NNW 13 19 7 10 1019.9 1015.2 0.0
22/05:30pm 28.4 24.7 4.6 22 12.7 NW 13 19 7 10 1020.0 1015.3 0.0
22/05:00pm 28.6 24.6 4.8 22 12.8 WNW 15 22 8 12 1020.0 1015.3 0.0
22/04:30pm 29.1 25.8 6.5 24 12.5 W 13 26 7 14 1020.1 1015.5 0.0
22/04:00pm 28.3 24.1 5.8 24 12.3 NNW 17 26 9 14 1020.5 1015.8 0.0
22/03:30pm 28.5 24.6 7.1 26 11.9 NW 17 35 9 19 1020.9 1016.2 0.0
22/03:00pm 28.0 23.8 7.3 27 11.5 N 19 28 10 15 1021.1 1016.5 0.0
22/02:30pm 27.2 22.5 6.0 26 11.5 NW 20 33 11 18 1021.6 1016.9 0.0
22/02:00pm 28.0 23.5 6.2 25 11.9 NW 19 30 10 16 1021.9 1017.2 0.0
22/01:30pm 26.5 21.9 5.5 26 11.3 NW 19 32 10 17 1022.1 1017.5 0.0
22/01:00pm 26.9 22.2 5.2 25 11.6 NW 19 30 10 16 1022.3 1017.7 0.0
22/12:30pm 26.3 21.7 6.4 28 10.9 N 20 33 11 18 1022.5 1017.9 0.0
22/12:00pm 24.6 20.7 9.3 38 8.7 N 20 30 11 16 1023.0 1018.4 0.0
22/11:30am 23.9 20.7 11.3 45 7.4 N 19 30 10 16 1023.4 1018.8 0.0
22/11:00am 23.1 19.4 11.5 48 6.8 N 22 32 12 17 1023.5 1018.9 0.0
22/10:30am 22.1 18.8 11.5 51 6.2 NNE 20 28 11 15 1023.8 1019.1 0.0
22/10:00am 20.7 18.1 12.1 58 5.0 NE 17 22 9 12 1023.9 1019.2 0.0
22/09:30am 19.6 17.2 12.6 64 4.1 NE 17 28 9 15 1023.6 1019.0 0.0
22/09:00am 17.7 15.7 12.8 73 2.9 NE 15 22 8 12 1023.5 1018.9 0.0
22/08:30am 15.8 13.9 13.1 84 1.6 ENE 15 20 8 11 1023.2 1018.6 0.0
22/08:00am 14.5 13.0 13.0 91 0.9 NE 13 17 7 9 1023.1 1018.5 0.0
22/07:30am 13.0 11.5 11.9 93 0.6 ENE 11 15 6 8 1022.8 1018.1 0.0
22/07:00am 11.1 9.1 10.0 93 0.6 NE 11 15 6 8 1022.4 1017.8 0.0
22/06:30am 11.6 10.1 10.5 93 0.6 NE 9 11 5 6 1022.1 1017.5 0.0
22/06:00am 12.1 10.7 11.0 93 0.6 NE 9 13 5 7 1021.7 1017.0 0.0
22/05:30am 12.0 10.6 10.9 93 0.6 ENE 9 15 5 8 1021.4 1016.8 0.0
22/05:00am 12.4 10.7 11.3 93 0.6 NE 11 15 6 8 1021.4 1016.8 0.0
22/04:30am 12.4 10.3 11.3 93 0.6 ENE 13 17 7 9 1021.3 1016.7 0.0
22/04:00am 12.2 10.5 11.1 93 0.6 ENE 11 17 6 9 1021.3 1016.7 0.0
22/03:30am 12.5 11.2 11.4 93 0.6 ENE 9 15 5 8 1021.2 1016.6 0.0
22/03:00am 12.8 10.9 11.7 93 0.6 ENE 13 17 7 9 1021.3 1016.7 0.0
22/02:30am 13.1 11.3 12.0 93 0.6 NE 13 17 7 9 1021.4 1016.8 0.0
22/02:00am 12.5 10.9 11.4 93 0.6 ENE 11 17 6 9 1021.7 1017.0 0.0
22/01:30am 12.9 13.0 11.5 91 0.8 E 2 9 1 5 1022.0 1017.4 0.0
22/01:00am 12.9 12.0 11.3 90 0.9 E 7 11 4 6 1022.0 1017.4 0.0
22/12:30am 13.3 10.9 11.4 88 1.1 E 15 17 8 9 1022.3 1017.7 0.0
22/12:00am 13.0 11.2 10.9 87 1.2 ESE 11 13 6 7 1022.3 1017.7 0.0
 
Date/Time
EDT
Temp
°C
App
Temp
°C
Dew
Point
°C
Rel
Hum
%
Delta-T
°C
Wind Press
QNH
hPa
Press
MSL
hPa
Rain since
9am
mm
Dir  Spd
km/h
Gust
km/h
Spd
kts
Gust
kts
21/11:30pm 13.3 11.5 9.4 77 2.1 ESE 9 13 5 7 1022.1 1017.5 0.0
21/11:00pm 14.3 11.6 8.9 70 2.9 E 13 19 7 10 1022.0 1017.4 0.0
21/10:30pm 13.6 10.2 7.8 68 3.0 SE 15 17 8 9 1022.0 1017.4 0.0
21/10:00pm 13.7 9.3 2.6 47 5.2 SSE 15 17 8 9 1021.9 1017.2 0.0
21/09:30pm 13.9 9.9 0.5 40 6.0 SSE 11 15 6 8 1021.8 1017.1 0.0
21/09:00pm 15.6 12.1 -1.4 31 7.4 SW 7 9 4 5 1021.6 1016.9 0.0
21/08:30pm 17.7 13.1 -1.0 28 8.4 SSW 13 15 7 8 1021.1 1016.5 0.0
21/08:00pm 19.5 15.3 -1.0 25 9.3 SSW 11 13 6 7 1020.9 1016.2 0.0
21/07:30pm 22.0 17.4 -1.3 21 10.7 SW 13 17 7 9 1020.6 1015.9 0.0
21/07:00pm 24.3 19.3 -1.5 18 12.0 SW 15 19 8 10 1020.2 1015.6 0.0
21/06:30pm 25.2 20.5 -1.6 17 12.6 NW 13 19 7 10 1019.7 1015.0 0.0
21/06:00pm 26.9 23.4 -2.8 14 13.8 SW 6 13 3 7 1019.6 1014.9 0.0
21/05:30pm 26.5 23.5 -2.2 15 13.5 WNW 4 13 2 7 1019.5 1014.8 0.0
21/05:00pm 25.8 21.4 -2.8 15 13.2 NNW 11 17 6 9 1019.4 1014.7 0.0
21/04:30pm 25.9 21.7 -3.6 14 13.4 NNW 9 15 5 8 1019.5 1014.8 0.0
21/04:00pm 25.3 21.2 -3.2 15 13.0 SSE 9 15 5 8 1019.5 1014.8 0.0
21/03:30pm 25.5 20.6 -3.0 15 13.1 NNE 13 20 7 11 1019.7 1015.0 0.0
21/03:00pm 25.3 20.8 -3.2 15 13.0 WNW 11 17 6 9 1020.0 1015.3 0.0
21/02:30pm 24.7 20.6 -2.8 16 12.6 NE 9 19 5 10 1020.2 1015.6 0.0
21/02:00pm 24.0 19.6 -2.5 17 12.1 NE 11 20 6 11 1020.8 1016.1 0.0
21/01:30pm 23.8 19.8 -1.9 18 11.9 N 9 19 5 10 1021.0 1016.4 0.0
21/01:00pm 22.8 18.0 -2.7 18 11.5 NE 13 19 7 10 1021.2 1016.6 0.0
21/12:30pm 22.4 18.4 -2.3 19 11.2 WSW 9 15 5 8 1021.6 1016.9 0.0
21/12:00pm 20.9 16.5 -2.2 21 10.3 N 11 17 6 9 1021.9 1017.2 0.0
21/11:30am 20.6 16.7 -1.2 23 10.0 N 9 20 5 11 1022.1 1017.5 0.0
21/11:00am 19.4 15.5 -1.7 24 9.4 NNE 9 15 5 8 1022.3 1017.7 0.0
21/10:30am 18.0 13.6 -2.3 25 8.9 NNW 11 17 6 9 1022.3 1017.7 0.0
21/10:00am 17.6 14.3 -1.1 28 8.3 E 6 11 3 6 1022.1 1017.5 0.0
21/09:30am 16.7 13.0 -0.1 32 7.6 SE 9 13 5 7 1022.0 1017.4 0.0
21/09:00am 15.1 11.0 -0.2 35 6.8 SE 11 15 6 8 1021.8 1017.1 0.0
21/08:30am 13.3 9.7 2.8 49 4.9 SE 11 15 6 8 1021.6 1016.9 0.0
21/08:00am 10.6 7.9 3.6 62 3.2 SSE 7 9 4 5 1021.1 1016.5 0.0
21/07:30am 5.9 3.1 3.2 83 1.2 SSW 7 9 4 5 1020.5 1015.8 0.0
21/07:00am 4.9 1.9 1.7 80 1.3 SSW 7 9 4 5 1020.2 1015.6 0.0
21/06:30am 3.9 0.3 0.8 80 1.3 S 9 11 5 6 1019.8 1015.1 0.0
21/06:00am 4.0 0.4 0.5 78 1.4 S 9 11 5 6 1019.7 1015.0 0.0
21/05:30am 4.7 1.1 0.8 76 1.6 S 9 11 5 6 1019.5 1014.8 0.0
21/05:00am 6.3 2.5 1.6 72 2.0 SSE 11 13 6 7 1019.3 1014.6 0.0
21/04:30am 5.8 2.3 1.5 74 1.8 SSE 9 11 5 6 1019.3 1014.6 0.0
21/04:00am 6.0 2.1 1.0 70 2.1 SSE 11 11 6 6 1019.5 1014.8 0.0
21/03:30am 6.1 1.8 1.1 70 2.1 S 13 13 7 7 1019.4 1014.7 0.0
21/03:00am 5.6 2.0 0.8 71 2.0 S 9 11 5 6 1019.4 1014.7 0.0
21/02:30am 6.7 3.1 0.8 66 2.5 SSW 9 9 5 5 1019.5 1014.8 0.0
21/02:00am 7.1 2.9 -0.6 58 3.1 SW 11 11 6 6 1019.5 1014.8 0.0
21/01:30am 8.3 4.6 -0.2 55 3.5 SSW 9 11 5 6 1019.6 1014.9 0.0
21/01:00am 9.1 4.9 -0.8 50 4.1 SSW 11 13 6 7 1019.7 1015.0 0.0
21/12:30am 8.6 4.4 -1.2 50 4.0 SW 11 13 6 7 1019.7 1015.0 0.0
21/12:00am 9.5 5.3 -0.7 49 4.2 SSW 11 15 6 8 1019.6 1014.9 0.0
 
Date/Time
EDT
Temp
°C
App
Temp
°C
Dew
Point
°C
Rel
Hum
%
Delta-T
°C
Wind Press
QNH
hPa
Press
MSL
hPa
Rain since
9am
mm
Dir  Spd
km/h
Gust
km/h
Spd
kts
Gust
kts
20/11:30pm 8.8 4.9 -1.3 49 4.1 SSW 9 11 5 6 1019.5 1014.8 0.0
20/11:00pm 10.7 6.1 -0.7 45 4.8 SSW 13 17 7 9 1019.5 1014.8 0.0
20/10:30pm 10.3 5.8 -0.5 47 4.6 SW 13 15 7 8 1019.5 1014.8 0.0
20/10:00pm 9.4 5.7 -0.2 51 4.0 SW 9 9 5 5 1019.5 1014.8 0.0
20/09:30pm 10.6 6.8 -0.8 45 4.8 SW 9 11 5 6 1019.0 1014.3 0.0
20/09:00pm 11.8 8.0 -0.7 42 5.3 SSW 9 11 5 6 1018.6 1013.9 0.0
20/08:30pm 12.4 8.6 -0.8 40 5.7 SW 9 11 5 6 1017.9 1013.2 0.0
20/08:00pm 13.0 8.7 -1.7 36 6.2 WSW 11 11 6 6 1017.4 1012.7 0.0
20/07:30pm 15.5 10.8 -1.5 31 7.4 WSW 13 19 7 10 1016.8 1012.1 0.0
20/07:00pm 16.5 10.4 -2.5 27 8.1 SW 20 28 11 15 1016.2 1011.4 0.0
20/06:30pm 17.4 11.4 -2.8 25 8.7 WSW 19 24 10 13 1015.9 1011.1 0.0

Other Formats:

Comma delimited format used in spreadsheet applications
http://www.bom.gov.au/fwo/IDN60801/IDN60801.95726.axf

JavaScript Object Notation format (JSON) in row-major order
http://www.bom.gov.au/fwo/IDN60801/IDN60801.95726.json